Time;durP1;ratioP1;P1;durP2;ratioP2;P2;SDS_P1;SDS_P2;PMS_P1;PMS_P2;Temp;Humidity;BMP_temperature;BMP_pressure;BME280_temperature;BME280_humidity;BME280_pressure;Samples;Min_cycle;Max_cycle;Signal;HPM_P1;HPM_P2
2021/03/01 00:00:31;;;;;;;56.33;22.47;;;5.50;99.90;;;;;;5137044;27;20248;-61
2021/03/01 00:02:57;;;;;;;30.10;11.73;;;5.40;99.90;;;;;;5138864;27;20182;-63
2021/03/01 00:05:23;;;;;;;29.13;9.60;;;5.50;99.90;;;;;;5139172;27;20455;-63
2021/03/01 00:07:49;;;;;;;34.03;9.90;;;5.40;99.90;;;;;;5139265;27;20420;-67
2021/03/01 00:10:16;;;;;;;22.13;8.53;;;5.30;99.90;;;;;;5139692;27;20425;-66
2021/03/01 00:12:43;;;;;;;25.70;8.52;;;5.30;99.90;;;;;;5137520;27;20514;-63
2021/03/01 00:15:11;;;;;;;19.70;8.05;;;5.40;99.90;;;;;;5137718;27;20213;-65
2021/03/01 00:17:38;;;;;;;24.13;8.32;;;5.70;99.90;;;;;;5137553;27;20204;-64
2021/03/01 00:20:06;;;;;;;21.60;9.50;;;5.80;99.90;;;;;;5136461;27;20200;-63
2021/03/01 00:22:31;;;;;;;23.30;7.57;;;5.90;99.90;;;;;;5137319;27;20179;-61
2021/03/01 00:24:57;;;;;;;27.23;8.20;;;5.80;99.90;;;;;;5137398;27;20510;-66
2021/03/01 00:27:22;;;;;;;18.03;8.10;;;5.70;99.90;;;;;;5137387;27;20457;-63
2021/03/01 00:29:48;;;;;;;20.77;9.47;;;5.70;99.90;;;;;;5137156;27;20180;-62
2021/03/01 00:32:13;;;;;;;18.77;7.90;;;5.80;99.90;;;;;;5137497;27;20167;-67
2021/03/01 00:34:39;;;;;;;29.87;10.63;;;5.80;99.90;;;;;;5136966;27;20595;-68
2021/03/01 00:37:04;;;;;;;23.60;8.83;;;5.90;99.90;;;;;;5137362;27;20247;-68
2021/03/01 00:39:30;;;;;;;25.23;9.03;;;6.10;99.90;;;;;;5137095;27;20191;-64
2021/03/01 00:41:55;;;;;;;25.63;8.83;;;6.10;99.90;;;;;;5136825;27;20604;-67
2021/03/01 00:44:21;;;;;;;24.80;9.30;;;6.10;99.90;;;;;;5136737;27;20170;-65
2021/03/01 00:46:46;;;;;;;30.83;10.60;;;6.00;99.90;;;;;;5137210;27;20228;-67
2021/03/01 00:49:12;;;;;;;25.70;12.30;;;5.80;99.90;;;;;;5137833;27;20180;-67
2021/03/01 00:51:38;;;;;;;33.10;11.27;;;5.70;99.90;;;;;;5138505;27;20174;-69
2021/03/01 00:54:04;;;;;;;25.10;10.00;;;5.60;99.90;;;;;;5120517;27;20622;-65
2021/03/01 00:56:29;;;;;;;29.30;12.98;;;5.60;99.90;;;;;;5138883;27;20202;-66
2021/03/01 00:58:55;;;;;;;31.17;11.33;;;5.60;99.90;;;;;;5138214;27;20229;-67
2021/03/01 01:01:20;;;;;;;25.73;10.13;;;5.60;99.90;;;;;;5138266;27;20236;-65
2021/03/01 01:03:46;;;;;;;26.97;10.13;;;5.60;99.90;;;;;;5138640;27;20230;-65
2021/03/01 01:06:12;;;;;;;25.20;10.40;;;5.50;99.90;;;;;;5138499;27;20248;-66
2021/03/01 01:08:37;;;;;;;30.50;10.80;;;5.40;99.90;;;;;;5138958;27;20298;-66
2021/03/01 01:11:03;;;;;;;24.90;9.70;;;5.30;99.90;;;;;;5138498;27;20231;-65
2021/03/01 01:13:29;;;;;;;31.40;11.57;;;5.10;99.90;;;;;;5138645;27;20180;-66
2021/03/01 01:15:54;;;;;;;30.07;11.03;;;5.20;99.90;;;;;;5138571;27;20416;-65
2021/03/01 01:18:20;;;;;;;26.67;10.80;;;5.30;99.90;;;;;;5138510;27;20246;-66
2021/03/01 01:20:46;;;;;;;26.20;10.95;;;5.30;99.90;;;;;;5138521;27;20203;-65
2021/03/01 01:23:12;;;;;;;29.40;11.07;;;5.10;99.90;;;;;;5138638;27;20493;-65
2021/03/01 01:25:37;;;;;;;26.37;10.03;;;5.00;99.90;;;;;;5138553;27;20246;-66
2021/03/01 01:28:03;;;;;;;25.70;9.83;;;5.00;99.90;;;;;;5138158;27;20180;-65
2021/03/01 01:30:29;;;;;;;26.10;9.33;;;4.90;99.90;;;;;;5137696;27;20174;-65
2021/03/01 01:32:54;;;;;;;29.17;11.77;;;4.90;99.90;;;;;;5137962;27;20174;-66
2021/03/01 01:35:21;;;;;;;31.03;11.97;;;5.00;99.90;;;;;;5138759;27;20184;-65
2021/03/01 01:37:47;;;;;;;30.42;10.40;;;5.10;99.90;;;;;;5138531;27;20425;-65
2021/03/01 01:40:17;;;;;;;28.60;10.18;;;5.10;99.90;;;;;;5138110;27;20229;-66
2021/03/01 01:42:44;;;;;;;28.80;11.65;;;5.20;99.90;;;;;;5137276;27;20266;-66
2021/03/01 01:45:12;;;;;;;26.20;10.40;;;5.50;99.90;;;;;;5136227;27;20175;-66
2021/03/01 01:47:39;;;;;;;25.60;11.52;;;5.70;99.90;;;;;;5136466;27;20172;-66
2021/03/01 01:50:07;;;;;;;25.00;9.38;;;5.70;99.90;;;;;;5135472;27;20179;-66
2021/03/01 01:52:33;;;;;;;30.20;11.48;;;5.50;99.90;;;;;;5136579;27;20203;-66
2021/03/01 01:54:59;;;;;;;29.60;10.07;;;5.50;99.90;;;;;;5136769;27;20179;-66
2021/03/01 01:57:26;;;;;;;27.23;9.45;;;5.40;99.90;;;;;;5135755;27;20789;-66
2021/03/01 01:59:52;;;;;;;27.23;11.15;;;5.30;99.90;;;;;;5136091;27;20197;-66
2021/03/01 02:02:17;;;;;;;33.13;13.43;;;5.60;99.90;;;;;;5136191;27;20189;-66
2021/03/01 02:04:51;;;;;;;29.43;12.33;;;5.70;99.90;;;;;;5135639;27;20186;-66
2021/03/01 02:07:38;;;;;;;33.50;10.85;;;5.70;99.90;;;;;;5136593;27;20164;-66
2021/03/01 02:10:14;;;;;;;28.48;12.35;;;5.60;99.90;;;;;;5136273;27;20170;-65
2021/03/01 02:12:43;;;;;;;28.45;12.13;;;5.70;99.90;;;;;;5136120;27;20178;-65
2021/03/01 02:15:13;;;;;;;32.83;12.73;;;5.90;99.90;;;;;;5135733;27;20168;-65
2021/03/01 02:17:39;;;;;;;33.13;11.57;;;5.90;99.90;;;;;;5135832;27;20170;-65
2021/03/01 02:20:08;;;;;;;29.40;11.53;;;5.80;99.90;;;;;;5136341;27;20240;-65
2021/03/01 02:22:34;;;;;;;31.55;11.48;;;5.70;99.90;;;;;;5136379;27;20174;-66
2021/03/01 02:25:13;;;;;;;28.83;11.93;;;5.50;99.90;;;;;;5137161;27;20188;-65
2021/03/01 02:27:51;;;;;;;34.88;14.60;;;5.50;99.90;;;;;;5136176;27;20171;-66
2021/03/01 02:30:48;;;;;;;34.10;13.00;;;5.70;99.90;;;;;;5135795;27;20640;-66
2021/03/01 02:33:18;;;;;;;32.13;13.38;;;5.80;99.90;;;;;;5123200;27;20259;-66
2021/03/01 02:35:51;;;;;;;35.60;13.02;;;6.00;99.90;;;;;;5135609;27;20250;-66
2021/03/01 02:38:23;;;;;;;36.72;13.52;;;6.00;99.90;;;;;;5135649;27;20167;-66
2021/03/01 02:40:50;;;;;;;31.55;11.05;;;5.80;99.90;;;;;;5135768;27;20218;-66
2021/03/01 02:43:17;;;;;;;31.52;13.52;;;5.70;99.90;;;;;;5136808;27;20176;-66
2021/03/01 02:45:45;;;;;;;29.40;12.30;;;5.50;99.90;;;;;;5137186;27;20224;-66
2021/03/01 02:48:13;;;;;;;41.45;13.50;;;5.40;99.90;;;;;;5137203;27;20290;-66
2021/03/01 02:50:39;;;;;;;28.63;12.93;;;5.20;99.90;;;;;;5137152;27;20190;-66
2021/03/01 02:53:05;;;;;;;27.88;11.88;;;5.20;99.90;;;;;;5136468;27;20174;-66
2021/03/01 02:55:31;;;;;;;30.50;11.30;;;5.30;99.90;;;;;;5136547;27;20259;-65
2021/03/01 02:57:58;;;;;;;29.60;13.02;;;5.40;99.90;;;;;;5136967;27;20477;-66
2021/03/01 03:00:24;;;;;;;26.90;10.90;;;5.50;99.90;;;;;;5135211;27;20221;-65
2021/03/01 03:02:51;;;;;;;33.47;11.32;;;5.40;99.90;;;;;;5134718;27;20429;-67
2021/03/01 03:05:19;;;;;;;26.90;10.60;;;5.50;99.90;;;;;;5135009;27;20235;-67
2021/03/01 03:07:46;;;;;;;28.88;11.68;;;5.60;99.90;;;;;;5135195;27;20171;-67
2021/03/01 03:10:14;;;;;;;28.88;12.02;;;5.70;99.90;;;;;;5135231;27;20199;-67
2021/03/01 03:12:40;;;;;;;29.35;11.95;;;5.80;99.90;;;;;;5135242;27;20567;-67
2021/03/01 03:15:14;;;;;;;23.55;12.18;;;5.70;99.90;;;;;;5135035;27;20179;-65
2021/03/01 03:17:40;;;;;;;21.13;9.82;;;5.50;99.90;;;;;;5135357;27;20173;-67
2021/03/01 03:20:07;;;;;;;22.42;9.80;;;5.60;99.90;;;;;;5135061;27;20176;-65
2021/03/01 03:22:33;;;;;;;24.98;10.07;;;5.90;99.90;;;;;;5134901;27;20198;-64
2021/03/01 03:25:00;;;;;;;21.00;10.45;;;5.80;99.90;;;;;;5134453;27;20564;-67
2021/03/01 03:27:26;;;;;;;22.60;9.63;;;5.70;99.90;;;;;;5134411;27;20186;-66
2021/03/01 03:29:52;;;;;;;21.30;8.37;;;5.00;99.90;;;;;;5137740;27;20646;-65
2021/03/01 03:32:17;;;;;;;23.43;10.73;;;5.30;99.90;;;;;;5141228;27;20242;-66
2021/03/01 03:34:43;;;;;;;23.30;8.87;;;5.20;99.90;;;;;;5146015;27;20437;-65
2021/03/01 03:37:13;;;;;;;21.60;9.20;;;5.10;99.90;;;;;;5119118;27;20518;-65
2021/03/01 03:39:45;;;;;;;19.25;8.63;;;5.20;99.90;;;;;;5116631;28;20190;-65
2021/03/01 03:42:15;;;;;;;21.67;9.68;;;5.40;99.90;;;;;;5116769;28;20219;-66
2021/03/01 03:44:42;;;;;;;19.40;9.25;;;5.40;99.90;;;;;;5120756;27;20266;-65
2021/03/01 03:47:08;;;;;;;16.98;8.95;;;5.20;99.90;;;;;;5139070;27;20257;-65
2021/03/01 03:49:36;;;;;;;23.73;8.63;;;5.30;99.90;;;;;;5139817;27;20194;-65
2021/03/01 03:52:07;;;;;;;17.70;9.38;;;5.50;99.90;;;;;;5146681;27;20190;-65
2021/03/01 03:54:35;;;;;;;17.45;7.45;;;5.40;99.90;;;;;;5144776;27;20187;-65
2021/03/01 03:57:03;;;;;;;20.42;10.10;;;5.60;99.90;;;;;;5143461;27;20499;-65
2021/03/01 03:59:33;;;;;;;23.08;9.93;;;5.50;99.90;;;;;;5139342;27;20191;-65
2021/03/01 04:01:59;;;;;;;18.88;9.35;;;5.50;99.90;;;;;;5145286;27;20202;-65
2021/03/01 04:04:27;;;;;;;25.85;9.95;;;5.60;99.90;;;;;;5156292;27;20244;-65
2021/03/01 04:06:55;;;;;;;22.65;11.48;;;5.50;99.90;;;;;;5157289;27;20167;-65
2021/03/01 04:09:22;;;;;;;21.58;10.88;;;5.50;99.90;;;;;;5157368;27;20495;-67
2021/03/01 04:11:49;;;;;;;23.83;10.00;;;5.60;99.90;;;;;;5157001;27;20183;-66
2021/03/01 04:14:18;;;;;;;22.73;10.57;;;5.70;99.90;;;;;;5157403;27;20506;-66
2021/03/01 04:16:51;;;;;;;22.75;9.80;;;5.90;99.90;;;;;;5156728;27;20257;-66
2021/03/01 04:19:20;;;;;;;22.92;11.43;;;5.80;99.90;;;;;;5158426;27;20268;-66
2021/03/01 04:21:46;;;;;;;24.05;10.55;;;5.70;99.90;;;;;;5158433;27;20199;-67
2021/03/01 04:24:15;;;;;;;27.90;10.57;;;5.80;99.90;;;;;;5158305;27;20579;-67
2021/03/01 04:26:43;;;;;;;21.08;8.80;;;5.90;99.90;;;;;;5158786;27;20182;-66
2021/03/01 04:29:09;;;;;;;28.63;10.95;;;6.10;99.90;;;;;;5158801;27;20167;-66
2021/03/01 04:31:36;;;;;;;26.60;12.43;;;6.10;99.90;;;;;;5158845;27;20292;-66
2021/03/01 04:34:04;;;;;;;21.33;9.60;;;6.10;99.00;;;;;;5158535;27;20323;-66
2021/03/01 04:36:31;;;;;;;23.60;10.13;;;6.20;79.90;;;;;;5158736;27;20186;-67
2021/03/01 04:38:56;;;;;;;21.15;9.85;;;6.10;45.10;;;;;;5158640;27;20182;-66
2021/03/01 04:41:23;;;;;;;26.17;10.37;;;6.00;27.30;;;;;;5140109;27;20199;-68
2021/03/01 04:43:49;;;;;;;16.73;8.52;;;5.80;44.60;;;;;;5158381;27;20603;-67
2021/03/01 04:46:16;;;;;;;28.27;11.98;;;5.80;69.40;;;;;;5158354;27;20555;-66
2021/03/01 04:48:43;;;;;;;27.02;9.73;;;5.70;94.10;;;;;;5159351;27;20484;-65
2021/03/01 04:51:09;;;;;;;26.00;10.02;;;5.60;99.90;;;;;;5157567;27;20203;-65
2021/03/01 04:53:36;;;;;;;21.90;9.50;;;5.70;99.90;;;;;;5158215;27;20240;-65
2021/03/01 04:56:05;;;;;;;31.58;10.82;;;5.70;99.90;;;;;;5158273;27;20579;-65
2021/03/01 04:58:31;;;;;;;25.10;10.55;;;5.60;99.90;;;;;;5159056;27;20224;-66
2021/03/01 05:01:00;;;;;;;24.42;10.02;;;5.50;99.90;;;;;;5157964;27;20206;-65
2021/03/01 05:03:27;;;;;;;25.70;11.10;;;5.50;99.90;;;;;;5158732;27;20198;-65
2021/03/01 05:05:53;;;;;;;22.75;10.43;;;5.40;99.90;;;;;;5157257;27;20615;-65
2021/03/01 05:08:19;;;;;;;24.10;10.02;;;5.40;99.90;;;;;;5158565;27;20171;-65
2021/03/01 05:10:45;;;;;;;21.73;9.83;;;5.40;99.90;;;;;;5158001;27;20468;-65
2021/03/01 05:13:11;;;;;;;21.17;9.27;;;5.70;99.90;;;;;;5157643;27;20175;-61
2021/03/01 05:15:36;;;;;;;18.67;7.67;;;5.80;99.90;;;;;;5157426;27;20231;-60
2021/03/01 05:18:03;;;;;;;22.97;9.70;;;5.70;99.90;;;;;;5157148;27;20512;-62
2021/03/01 05:20:28;;;;;;;20.33;8.75;;;5.50;99.90;;;;;;5157140;27;20207;-60
2021/03/01 05:22:54;;;;;;;18.73;8.67;;;5.50;99.90;;;;;;5157273;27;20234;-60
2021/03/01 05:25:19;;;;;;;20.73;8.97;;;5.80;99.90;;;;;;5157223;27;20226;-60
2021/03/01 05:27:45;;;;;;;17.80;9.40;;;5.80;99.90;;;;;;5159255;27;20256;-60
2021/03/01 05:30:11;;;;;;;14.43;7.83;;;5.50;99.90;;;;;;5158066;27;20268;-61
2021/03/01 05:32:38;;;;;;;16.85;8.40;;;5.50;99.90;;;;;;5159325;27;20183;-60
2021/03/01 05:35:09;;;;;;;15.90;7.50;;;5.70;99.90;;;;;;5160118;27;20180;-61
2021/03/01 05:37:35;;;;;;;13.10;7.22;;;5.80;99.90;;;;;;5159458;27;20170;-61
2021/03/01 05:40:01;;;;;;;17.60;8.77;;;5.70;99.90;;;;;;5158890;27;20179;-60
2021/03/01 05:42:27;;;;;;;24.53;9.90;;;5.70;99.90;;;;;;5159489;27;20166;-61
2021/03/01 05:44:54;;;;;;;22.30;9.63;;;5.70;99.90;;;;;;5160100;27;20452;-61
2021/03/01 05:47:21;;;;;;;18.00;8.05;;;5.80;99.90;;;;;;5159913;27;20174;-61
2021/03/01 05:49:48;;;;;;;16.65;7.80;;;5.90;99.90;;;;;;5159737;27;20480;-61
2021/03/01 05:52:17;;;;;;;23.25;7.95;;;5.90;99.90;;;;;;5162568;27;20171;-61
2021/03/01 05:54:45;;;;;;;17.42;8.68;;;6.10;99.90;;;;;;5162784;27;20213;-61
2021/03/01 05:57:11;;;;;;;20.50;9.88;;;6.10;57.70;;;;;;5162087;27;20343;-61
2021/03/01 05:59:36;;;;;;;26.23;10.98;;;6.20;38.60;;;;;;5156818;27;20197;-60
2021/03/01 06:02:03;;;;;;;22.97;9.90;;;6.10;16.80;;;;;;5157389;27;20212;-60
2021/03/01 06:04:29;;;;;;;25.00;11.57;;;6.10;6.00;;;;;;5155334;27;20440;-60
2021/03/01 06:06:55;;;;;;;29.47;12.60;;;6.10;1.00;;;;;;5156884;27;20175;-61
2021/03/01 06:09:21;;;;;;;26.10;11.60;;;6.00;1.00;;;;;;5156871;27;20196;-61
2021/03/01 06:11:53;;;;;;;20.88;11.27;;;5.90;1.00;;;;;;5156553;27;20177;-61
2021/03/01 06:14:19;;;;;;;26.92;11.43;;;5.80;1.00;;;;;;5156405;27;20599;-61
2021/03/01 06:17:10;;;;;;;33.97;13.57;;;5.80;1.00;;;;;;5157134;27;20259;-61
2021/03/01 06:19:50;;;;;;;28.85;13.13;;;5.70;12.90;;;;;;5157385;27;20174;-61
2021/03/01 06:22:18;;;;;;;44.92;15.10;;;5.80;31.20;;;;;;5157430;27;20342;-61
2021/03/01 06:25:08;;;;;;;31.45;13.02;;;5.80;23.00;;;;;;5157979;27;20731;-61
2021/03/01 06:27:54;;;;;;;34.65;12.23;;;5.60;28.10;;;;;;5157357;27;20184;-62
2021/03/01 06:30:22;;;;;;;34.13;15.30;;;5.70;52.40;;;;;;5158507;27;20171;-61
2021/03/01 06:33:11;;;;;;;32.85;14.48;;;5.50;70.50;;;;;;5157032;27;20179;-62
2021/03/01 06:35:42;;;;;;;36.90;13.90;;;5.50;88.70;;;;;;5157790;27;20669;-62
2021/03/01 06:38:29;;;;;;;28.90;14.68;;;5.50;91.80;;;;;;5158082;27;20265;-62
2021/03/01 06:41:14;;;;;;;29.83;14.88;;;5.50;99.90;;;;;;5158456;27;20190;-61
2021/03/01 06:43:56;;;;;;;30.77;11.45;;;5.40;99.90;;;;;;5160548;27;20169;-62
2021/03/01 06:46:24;;;;;;;31.30;13.65;;;5.50;99.90;;;;;;5157552;27;20253;-61
2021/03/01 06:48:50;;;;;;;31.90;12.57;;;5.70;99.90;;;;;;5156879;27;20508;-61
2021/03/01 06:51:16;;;;;;;28.03;14.00;;;5.60;99.90;;;;;;5157135;27;20175;-61
2021/03/01 06:53:42;;;;;;;33.85;13.48;;;5.60;99.90;;;;;;5155875;27;20645;-61
2021/03/01 06:56:11;;;;;;;28.83;12.83;;;5.70;99.90;;;;;;5158119;27;20224;-61
2021/03/01 06:58:41;;;;;;;32.20;14.82;;;5.70;99.90;;;;;;5159155;27;20198;-63
2021/03/01 07:01:13;;;;;;;27.20;12.48;;;5.40;80.50;;;;;;5159851;27;20208;-62
2021/03/01 07:03:40;;;;;;;21.52;10.23;;;5.30;99.90;;;;;;5157529;27;20171;-62
2021/03/01 07:06:07;;;;;;;22.40;10.55;;;5.00;99.90;;;;;;5157859;27;20263;-61
2021/03/01 07:08:45;;;;;;;26.20;11.15;;;4.90;99.90;;;;;;5157452;27;20181;-61
2021/03/01 07:11:23;;;;;;;28.88;12.90;;;4.70;99.90;;;;;;5157429;27;20197;-61
2021/03/01 07:13:48;;;;;;;28.83;13.38;;;4.80;99.90;;;;;;5156494;27;20493;-60
2021/03/01 07:16:15;;;;;;;28.25;12.65;;;4.90;99.90;;;;;;5156499;27;20578;-61
2021/03/01 07:18:42;;;;;;;24.45;11.85;;;5.20;99.90;;;;;;5155744;27;20268;-61
2021/03/01 07:21:11;;;;;;;23.58;11.65;;;5.30;99.90;;;;;;5156001;27;20265;-61
2021/03/01 07:23:41;;;;;;;28.00;13.80;;;5.30;99.90;;;;;;5141368;27;20999;-61
2021/03/01 07:26:08;;;;;;;24.25;11.95;;;5.30;99.90;;;;;;5138314;27;20649;-61
2021/03/01 07:28:35;;;;;;;29.85;13.48;;;5.60;99.90;;;;;;5142768;27;20230;-61
2021/03/01 07:31:02;;;;;;;22.25;12.95;;;5.50;99.90;;;;;;5151163;27;20179;-60
2021/03/01 07:33:27;;;;;;;31.35;13.70;;;5.70;99.90;;;;;;5145798;27;20226;-62
2021/03/01 07:35:56;;;;;;;27.20;11.60;;;5.90;99.90;;;;;;5144244;27;20621;-61
2021/03/01 07:38:23;;;;;;;28.77;12.68;;;6.10;77.70;;;;;;5143600;27;20190;-64
2021/03/01 07:40:48;;;;;;;26.45;13.50;;;6.00;9.40;;;;;;5136496;27;20534;-62
2021/03/01 07:43:14;;;;;;;27.73;13.70;;;6.10;1.00;;;;;;5142158;27;20196;-63
2021/03/01 07:45:43;;;;;;;26.47;11.03;;;6.10;1.00;;;;;;5140075;27;20182;-63
2021/03/01 07:48:15;;;;;;;34.60;13.70;;;6.20;1.00;;;;;;5142340;27;20743;-62
2021/03/01 07:50:46;;;;;;;30.75;14.55;;;6.20;1.00;;;;;;5132066;27;20196;-62
2021/03/01 07:53:49;;;;;;;36.47;14.48;;;6.50;1.00;;;;;;5121671;27;20277;-62
2021/03/01 07:56:24;;;;;;;24.67;11.57;;;6.40;1.00;;;;;;5141090;27;20194;-62
2021/03/01 07:59:04;;;;;;;24.73;13.15;;;6.10;1.00;;;;;;5139627;27;20646;-61
2021/03/01 08:01:30;;;;;;;26.35;13.30;;;6.10;1.00;;;;;;5139276;27;20231;-64
2021/03/01 08:03:56;;;;;;;25.55;13.10;;;6.10;1.00;;;;;;5116862;27;20202;-64
2021/03/01 08:06:22;;;;;;;27.95;12.70;;;6.00;1.00;;;;;;5125757;27;20188;-62
2021/03/01 08:08:52;;;;;;;39.47;17.30;;;6.00;1.00;;;;;;5125487;27;20368;-62
2021/03/01 08:11:37;;;;;;;28.25;13.40;;;5.90;1.00;;;;;;5131060;28;20493;-63
2021/03/01 08:14:12;;;;;;;25.25;13.10;;;6.00;1.00;;;;;;5117627;28;20192;-68
2021/03/01 08:16:38;;;;;;;25.00;14.27;;;5.70;1.00;;;;;;5113565;28;20171;-69
2021/03/01 08:19:04;;;;;;;34.47;14.73;;;6.10;1.00;;;;;;5117026;28;20218;-69
2021/03/01 08:22:03;;;;;;;30.40;14.07;;;6.20;1.00;;;;;;5136517;27;20207;-61
2021/03/01 08:24:49;;;;;;;42.17;17.63;;;6.20;1.00;;;;;;5133847;27;20511;-62
2021/03/01 08:27:26;;;;;;;40.97;22.02;;;6.30;1.00;;;;;;5138553;27;20757;-62
2021/03/01 08:30:24;;;;;;;41.03;18.35;;;6.60;1.00;;;;;;5145640;27;20191;-62
2021/03/01 08:33:08;;;;;;;33.10;16.48;;;6.70;99.90;;;;;;5116658;28;20270;-63
2021/03/01 08:35:54;;;;;;;30.20;15.65;;;6.90;99.90;;;;;;5116771;28;20234;-61
2021/03/01 08:38:42;;;;;;;32.67;16.08;;;7.10;99.90;;;;;;5103457;27;20196;-61
2021/03/01 08:41:09;;;;;;;28.30;15.07;;;7.30;1.00;;;;;;5117238;28;20208;-61
2021/03/01 08:43:36;;;;;;;27.77;15.25;;;7.50;99.90;;;;;;5117070;28;20181;-65
2021/03/01 08:46:03;;;;;;;31.98;16.67;;;7.30;99.90;;;;;;5116970;27;20187;-66
2021/03/01 08:48:29;;;;;;;33.30;17.00;;;7.20;1.00;;;;;;5137505;27;20220;-68
2021/03/01 08:50:55;;;;;;;36.80;19.07;;;7.40;1.00;;;;;;5137455;27;20175;-66
2021/03/01 08:53:30;;;;;;;36.58;19.65;;;7.30;99.90;;;;;;5135851;27;20440;-68
2021/03/01 08:55:57;;;;;;;32.75;17.55;;;7.30;19.30;;;;;;5120141;27;20177;-68
2021/03/01 08:58:25;;;;;;;26.85;14.75;;;7.30;47.50;;;;;;5136438;27;20459;-69
2021/03/01 09:01:03;;;;;;;30.95;17.00;;;7.20;1.00;;;;;;5137140;27;20197;-67
2021/03/01 09:03:32;;;;;;;29.02;15.77;;;7.20;1.00;;;;;;5136911;27;20176;-69
2021/03/01 09:06:14;;;;;;;25.13;15.10;;;7.70;24.40;;;;;;5135617;27;20293;-68
2021/03/01 09:08:41;;;;;;;30.52;16.42;;;7.70;31.90;;;;;;5136619;27;20176;-66
2021/03/01 09:11:15;;;;;;;43.72;22.35;;;7.90;1.00;;;;;;5136562;27;20189;-67
2021/03/01 09:13:42;;;;;;;29.15;16.52;;;8.30;99.90;;;;;;5135495;27;20188;-67
2021/03/01 09:16:13;;;;;;;32.25;17.23;;;8.30;1.00;;;;;;5136629;27;20193;-68
2021/03/01 09:18:40;;;;;;;52.63;27.75;;;8.10;95.60;;;;;;5136387;27;20174;-67
2021/03/01 09:21:07;;;;;;;33.80;15.80;;;8.10;45.10;;;;;;5135420;27;20536;-67
2021/03/01 09:23:46;;;;;;;31.15;18.20;;;8.10;26.10;;;;;;5134966;27;20268;-67
2021/03/01 09:26:25;;;;;;;55.53;33.10;;;8.20;1.00;;;;;;5135326;27;20186;-65
2021/03/01 09:29:13;;;;;;;31.33;15.00;;;8.40;99.90;;;;;;5117944;27;20243;-65
2021/03/01 09:31:47;;;;;;;32.45;17.45;;;8.40;1.00;;;;;;5115505;28;20185;-66
2021/03/01 09:34:16;;;;;;;28.02;15.95;;;8.30;1.00;;;;;;5133186;27;20185;-68
2021/03/01 09:36:47;;;;;;;32.30;18.05;;;8.10;1.00;;;;;;5135908;27;20181;-68
2021/03/01 09:39:17;;;;;;;27.33;15.98;;;8.20;99.90;;;;;;5145204;27;20188;-68
2021/03/01 09:41:42;;;;;;;33.05;17.33;;;8.40;99.90;;;;;;5134419;27;20223;-68
2021/03/01 09:44:08;;;;;;;38.77;17.47;;;8.60;99.90;;;;;;5144071;27;20172;-69
2021/03/01 09:46:35;;;;;;;27.97;15.57;;;8.50;99.90;;;;;;5156667;27;20425;-68
2021/03/01 09:49:06;;;;;;;31.13;17.13;;;8.10;99.90;;;;;;5126162;27;20187;-69
2021/03/01 09:51:34;;;;;;;31.95;17.10;;;7.90;99.90;;;;;;5115097;27;20268;-69
2021/03/01 09:54:05;;;;;;;36.30;19.33;;;7.70;1.00;;;;;;5134269;27;20181;-69
2021/03/01 09:56:49;;;;;;;27.67;16.92;;;7.80;87.30;;;;;;5125416;27;20193;-68
2021/03/01 09:59:31;;;;;;;32.05;15.85;;;7.90;1.00;;;;;;5140053;27;20175;-68
2021/03/01 10:02:11;;;;;;;30.38;16.08;;;8.10;99.90;;;;;;5136910;27;20210;-68
2021/03/01 10:04:38;;;;;;;36.05;19.55;;;8.20;99.90;;;;;;5134995;27;20187;-69
2021/03/01 10:07:14;;;;;;;28.52;16.02;;;8.30;1.00;;;;;;5125098;27;20225;-69
2021/03/01 10:09:40;;;;;;;26.95;15.20;;;8.60;1.00;;;;;;5125092;27;20209;-68
2021/03/01 10:12:06;;;;;;;30.10;16.00;;;8.20;99.90;;;;;;5147164;27;20600;-68
2021/03/01 10:14:31;;;;;;;30.17;15.90;;;8.50;1.00;;;;;;5154549;27;20297;-66
2021/03/01 10:16:57;;;;;;;32.43;18.57;;;8.90;99.90;;;;;;5115863;27;20241;-66
2021/03/01 10:19:23;;;;;;;27.37;17.17;;;9.10;1.00;;;;;;5114816;28;20247;-66
2021/03/01 10:21:50;;;;;;;31.07;17.47;;;9.50;1.00;;;;;;5142730;27;20236;-66
2021/03/01 10:24:18;;;;;;;37.00;21.85;;;10.00;99.90;;;;;;5133872;27;20226;-66
2021/03/01 10:26:54;;;;;;;32.88;18.73;;;9.70;39.80;;;;;;5114279;28;20213;-67
2021/03/01 10:29:34;;;;;;;27.83;16.98;;;9.90;51.90;;;;;;5113859;28;20490;-66
2021/03/01 10:32:01;;;;;;;27.58;15.15;;;9.60;1.00;;;;;;5114677;28;20565;-66
2021/03/01 10:34:38;;;;;;;23.90;16.10;;;9.00;1.00;;;;;;5139481;27;20587;-67
2021/03/01 10:37:09;;;;;;;31.02;18.27;;;8.40;99.90;;;;;;5152135;27;20180;-63
2021/03/01 10:39:43;;;;;;;25.70;15.45;;;8.00;1.00;;;;;;5155796;27;20181;-63
2021/03/01 10:42:14;;;;;;;32.88;18.15;;;8.20;1.00;;;;;;5122370;27;20202;-66
2021/03/01 10:44:54;;;;;;;27.75;16.50;;;8.20;99.90;;;;;;5112579;28;20192;-66
2021/03/01 10:47:25;;;;;;;30.23;17.85;;;8.50;99.90;;;;;;5114484;28;20182;-66
2021/03/01 10:49:53;;;;;;;30.20;18.13;;;8.40;9.30;;;;;;5115530;28;20225;-66
2021/03/01 10:52:20;;;;;;;29.23;17.80;;;8.50;99.90;;;;;;5114983;28;20625;-67
2021/03/01 10:54:46;;;;;;;30.45;17.20;;;8.80;1.00;;;;;;5114302;28;20250;-66
2021/03/01 10:57:12;;;;;;;31.95;17.58;;;8.80;1.00;;;;;;5127749;27;20565;-67
2021/03/01 10:59:38;;;;;;;24.33;14.60;;;8.90;99.90;;;;;;5146713;27;20226;-67
2021/03/01 11:02:05;;;;;;;27.50;15.80;;;9.10;1.00;;;;;;5155527;27;20379;-67
2021/03/01 11:04:30;;;;;;;33.22;18.45;;;9.00;99.90;;;;;;5133531;27;20447;-63
2021/03/01 11:06:56;;;;;;;29.93;16.37;;;9.00;99.90;;;;;;5131917;27;20188;-63
2021/03/01 11:09:22;;;;;;;30.47;18.83;;;9.30;99.90;;;;;;5137429;27;20178;-64
2021/03/01 11:11:49;;;;;;;31.13;15.77;;;9.50;99.90;;;;;;5146378;27;20176;-65
2021/03/01 11:14:17;;;;;;;29.98;17.33;;;9.40;20.70;;;;;;5136272;27;20185;-65
2021/03/01 11:16:43;;;;;;;32.30;17.90;;;8.90;99.90;;;;;;5134101;27;20190;-65
2021/03/01 11:19:11;;;;;;;28.87;16.70;;;8.40;1.00;;;;;;5141968;27;20185;-66
2021/03/01 11:21:37;;;;;;;31.13;15.85;;;8.70;99.90;;;;;;5146941;27;20231;-66
2021/03/01 11:24:03;;;;;;;28.85;16.40;;;8.80;1.00;;;;;;5154871;27;20184;-65
2021/03/01 11:26:29;;;;;;;31.88;17.33;;;8.90;41.10;;;;;;5147058;27;20177;-65
2021/03/01 11:28:55;;;;;;;26.40;15.70;;;8.70;99.90;;;;;;5146090;27;20172;-66
2021/03/01 11:31:22;;;;;;;28.52;14.52;;;8.80;99.90;;;;;;5154855;27;20186;-65
2021/03/01 11:33:48;;;;;;;25.00;14.43;;;7.70;99.90;;;;;;5142725;27;20194;-72
2021/03/01 11:36:13;;;;;;;31.10;16.70;;;6.90;1.00;;;;;;5133405;27;20188;-67
2021/03/01 11:38:39;;;;;;;29.27;15.60;;;6.80;1.00;;;;;;5134576;28;20796;-67
2021/03/01 11:41:05;;;;;;;27.47;16.37;;;7.40;99.90;;;;;;5134327;27;20229;-66
2021/03/01 11:43:35;;;;;;;28.70;16.80;;;7.20;1.00;;;;;;5134016;27;20456;-68
2021/03/01 11:46:01;;;;;;;29.35;18.25;;;7.40;1.00;;;;;;5133268;27;20570;-67
2021/03/01 11:48:27;;;;;;;30.55;15.60;;;7.30;1.00;;;;;;5135467;27;20589;-67
2021/03/01 11:50:53;;;;;;;29.37;16.97;;;7.30;6.10;;;;;;5146212;27;20189;-68
2021/03/01 11:53:18;;;;;;;29.40;15.43;;;7.20;99.90;;;;;;5144160;27;20189;-67
2021/03/01 11:55:45;;;;;;;37.23;18.50;;;7.40;15.10;;;;;;5143844;27;20461;-67
2021/03/01 11:58:11;;;;;;;31.65;18.98;;;8.00;99.90;;;;;;5130745;27;20217;-68
2021/03/01 12:00:40;;;;;;;28.97;16.47;;;8.20;1.00;;;;;;5125843;27;20229;-68
2021/03/01 12:03:07;;;;;;;30.50;18.38;;;8.30;99.90;;;;;;5148858;27;20571;-68
2021/03/01 12:05:34;;;;;;;29.15;16.27;;;8.40;99.90;;;;;;5137795;27;20197;-68
2021/03/01 12:08:00;;;;;;;28.38;16.77;;;8.50;1.00;;;;;;5138112;27;20560;-69
2021/03/01 12:10:26;;;;;;;30.57;17.17;;;8.40;1.00;;;;;;5137728;27;20621;-68
2021/03/01 12:12:51;;;;;;;30.27;17.93;;;8.40;99.90;;;;;;5137647;27;20629;-67
2021/03/01 12:15:17;;;;;;;27.13;15.00;;;8.30;35.60;;;;;;5137722;27;20189;-67
2021/03/01 12:17:43;;;;;;;28.52;17.45;;;8.30;99.90;;;;;;5142033;27;20187;-66
2021/03/01 12:20:09;;;;;;;25.80;15.57;;;8.20;1.00;;;;;;5149731;27;20172;-69
2021/03/01 12:22:34;;;;;;;32.37;16.67;;;8.20;1.00;;;;;;5145878;27;20209;-67
2021/03/01 12:25:00;;;;;;;27.50;15.97;;;8.20;1.00;;;;;;5137433;27;20314;-65
2021/03/01 12:27:26;;;;;;;33.40;17.33;;;8.30;1.00;;;;;;5135390;27;20498;-68
2021/03/01 12:29:52;;;;;;;27.20;15.37;;;8.50;1.00;;;;;;5135441;27;20614;-68
2021/03/01 12:32:18;;;;;;;30.00;16.73;;;8.20;99.90;;;;;;5141120;27;20181;-68
2021/03/01 12:34:44;;;;;;;25.40;16.20;;;8.10;1.00;;;;;;5140774;27;20186;-66
2021/03/01 12:37:10;;;;;;;32.03;16.80;;;7.80;1.00;;;;;;5132869;27;20519;-66
2021/03/01 12:39:37;;;;;;;30.13;16.43;;;8.00;1.00;;;;;;5141067;27;20613;-66
2021/03/01 12:42:03;;;;;;;31.50;17.60;;;7.80;99.90;;;;;;5135569;27;20465;-67
2021/03/01 12:44:29;;;;;;;29.70;16.42;;;7.90;1.00;;;;;;5136842;27;20614;-66
2021/03/01 12:46:54;;;;;;;29.93;16.90;;;8.10;1.00;;;;;;5137377;27;20185;-67
2021/03/01 12:49:20;;;;;;;32.37;17.13;;;8.60;99.90;;;;;;5137485;27;20177;-66